Погода Сойалона неделю

Чьяпас, Мексика

26 февраля-03 марта
  • 26февраля
    Сегодня
    +11°
    +30°
    Ясно и безоблачно
    ВремяПогодаТемператураВлажностьДавлениеВетер, м/сВероятность осадков
    00:00Ясно и безоблачно+16°C71 %663 мм1.5 м/с2 %
    03:00Ясно и безоблачно+12°C53 %660 мм0.8 м/с2 %
    06:00Практически безоблачно+13°C41 %661 мм1.0 м/с2 %
    09:00Ясно и безоблачно+20°C31 %664 мм0.5 м/с2 %
    12:00Практически безоблачно+28°C20 %665 мм1.6 м/с2 %
    15:00Ясно и безоблачно+29°C25 %663 мм2.8 м/с2 %
    18:00Ясно и безоблачно+24°C54 %662 мм2.7 м/с2 %
    21:00Ясно и безоблачно+19°C75 %662 мм2.6 м/с2 %
  • 27февраля
    Вторник
    +15°
    +31°
    Ясно и безоблачно
    ВремяПогодаТемператураВлажностьДавлениеВетер, м/сВероятность осадков
    00:00Ясно и безоблачно+17°C69 %661 мм1.4 м/с2 %
    03:00Ясно и безоблачно+13°C44 %658 мм0.7 м/с2 %
    06:00Ясно и безоблачно+12°C36 %659 мм0.8 м/с2 %
    09:00Ясно и безоблачно+21°C35 %662 мм1.3 м/с2 %
    12:00Ясно и безоблачно+27°C23 %663 мм2.7 м/с2 %
    15:00Ясно и безоблачно+30°C18 %662 мм2.4 м/с2 %
    18:00Ясно и безоблачно+26°C49 %661 мм2.0 м/с2 %
    21:00Ясно и безоблачно+21°C74 %662 мм0.6 м/с2 %
  • 28февраля
    Среда
    +14°
    +32°
    Ясно и безоблачно
    ВремяПогодаТемператураВлажностьДавлениеВетер, м/сВероятность осадков
    00:00Ясно и безоблачно+18°C75 %661 мм0.6 м/с2 %
    03:00Ясно и безоблачно+17°C68 %659 мм0.9 м/с2 %
    06:00Ясно и безоблачно+16°C70 %659 мм1.3 м/с2 %
    09:00Ясно и безоблачно+23°C41 %663 мм2.0 м/с2 %
    12:00Ясно и безоблачно+29°C28 %664 мм2.3 м/с2 %
    15:00Ясно и безоблачно+32°C23 %662 мм2.6 м/с2 %
    18:00Ясно и безоблачно+27°C39 %662 мм2.0 м/с2 %
    21:00Ясно и безоблачно+23°C64 %663 мм1.3 м/с2 %
  • 29февраля
    Четверг
    +14°
    +31°
    Ясно и безоблачно
    ВремяПогодаТемператураВлажностьДавлениеВетер, м/сВероятность осадков
    00:00Ясно и безоблачно+19°C80 %663 мм1.9 м/с2 %
    03:00Ясно и безоблачно+16°C68 %660 мм1.2 м/с2 %
    06:00Ясно и безоблачно+15°C50 %661 мм1.3 м/с3 %
    09:00Ясно и безоблачно+22°C46 %664 мм1.3 м/с3 %
    12:00Ясно и безоблачно+28°C30 %665 мм2.3 м/с3 %
    15:00Ясно и безоблачно+30°C35 %663 мм3.3 м/с9 %
    18:00Практически безоблачно+24°C68 %663 мм3.9 м/с18 %
    21:00Ясно и безоблачно+21°C83 %663 мм2.7 м/с12 %
  • 01марта
    Пятница
    +17°
    +31°
    Практически безоблачно
    ВремяПогодаТемператураВлажностьДавлениеВетер, м/сВероятность осадков
    00:00Ясно и безоблачно+18°C82 %663 мм1.9 м/с2 %
    03:00Ясно и безоблачно+17°C79 %661 мм1.3 м/с2 %
    06:00Ясно и безоблачно+15°C71 %661 мм0.7 м/с2 %
    09:00Ясно и безоблачно+22°C49 %664 мм0.8 м/с2 %
    12:00Ясно и безоблачно+28°C34 %664 мм2.5 м/с4 %
    15:00Практически безоблачно+31°C31 %663 мм2.5 м/с13 %
    18:00Практически безоблачно+26°C61 %663 мм2.4 м/с19 %
    21:00Практически безоблачно+22°C81 %664 мм1.3 м/с4 %
Мы используем cookies
Соглашаюсь